MTN7284 TGPY-TNCM
Flight info
| Callsign | MTN7284 |
|---|---|
| Flight time | N/A |
| Altitude | 10500 |
| Route | EMKIS DCT SORRL/N0180F080 DCT ZPATA |
| Aircraft | C208/L-SDFGR/C |
Departure
| Time | 2026-04-23 22:12 |
|---|---|
| Airport | Maurice Bishop International Airport (TGPY) |
Arrival
| Time | N/A |
|---|---|
| Airport | Princess Juliana International Airport (TNCM) |
| Time | Latitude | Longitude | Altitude | Speed | Heading |
|---|---|---|---|---|---|
| 2026-04-23 21:58 | 12.00655 | -61.78689 | 46 ft | 0 kts | 46° |
| 2026-04-23 21:59 | 12.00656 | -61.78688 | 46 ft | 1 kts | 46° |
| 2026-04-23 21:59 | 12.00637 | -61.78665 | 45 ft | 11 kts | 157° |
| 2026-04-23 21:59 | 12.00552 | -61.78599 | 43 ft | 20 kts | 162° |
| 2026-04-23 22:00 | 12.00485 | -61.78597 | 41 ft | 0 kts | 181° |
| 2026-04-23 22:06 | 12.00437 | -61.78597 | 40 ft | 13 kts | 179° |
| 2026-04-23 22:06 | 12.00404 | -61.78684 | 40 ft | 20 kts | 270° |
| 2026-04-23 22:06 | 12.00402 | -61.78860 | 40 ft | 29 kts | 270° |
| 2026-04-23 22:07 | 12.00403 | -61.79115 | 38 ft | 42 kts | 271° |
| 2026-04-23 22:07 | 12.00411 | -61.79430 | 36 ft | 46 kts | 272° |
| 2026-04-23 22:07 | 12.00414 | -61.79746 | 33 ft | 34 kts | 268° |
| 2026-04-23 22:07 | 12.00418 | -61.79839 | 32 ft | 14 kts | 121° |
| 2026-04-23 22:08 | 12.00414 | -61.79813 | 33 ft | 0 kts | 89° |
| 2026-04-23 22:10 | 12.00415 | -61.79812 | 33 ft | 0 kts | 89° |
| 2026-04-23 22:10 | 12.00415 | -61.79808 | 33 ft | 8 kts | 89° |
| 2026-04-23 22:11 | 12.00414 | -61.79564 | 35 ft | 59 kts | 91° |
| 2026-04-23 22:11 | 12.00411 | -61.79012 | 64 ft | 93 kts | 94° |
| 2026-04-23 22:11 | 12.00366 | -61.78327 | 252 ft | 98 kts | 96° |
| 2026-04-23 22:11 | 12.00288 | -61.77636 | 479 ft | 95 kts | 89° |
| 2026-04-23 22:12 | 12.00366 | -61.76978 | 697 ft | 97 kts | 81° |
| 2026-04-23 22:12 | 12.00382 | -61.76341 | 982 ft | 88 kts | 102° |
| 2026-04-23 22:12 | 12.00077 | -61.75918 | 1114 ft | 96 kts | 143° |
| 2026-04-23 22:12 | 11.99397 | -61.75864 | 1302 ft | 101 kts | 195° |
| 2026-04-23 22:13 | 11.98852 | -61.76277 | 1528 ft | 103 kts | 236° |
| 2026-04-23 22:13 | 11.98677 | -61.76961 | 1815 ft | 94 kts | 262° |
| 2026-04-23 22:13 | 11.98570 | -61.77690 | 1866 ft | 113 kts | 258° |
| 2026-04-23 22:13 | 11.98371 | -61.78466 | 2081 ft | 113 kts | 250° |
| 2026-04-23 22:14 | 11.98074 | -61.79217 | 2240 ft | 119 kts | 254° |
| 2026-04-23 22:14 | 11.98058 | -61.80081 | 2405 ft | 121 kts | 281° |
| 2026-04-23 22:14 | 11.98169 | -61.80871 | 2707 ft | 111 kts | 271° |
| 2026-04-23 22:14 | 11.98373 | -61.81653 | 2771 ft | 120 kts | 306° |
| 2026-04-23 22:15 | 11.99087 | -61.82036 | 2832 ft | 118 kts | 4° |
| 2026-04-23 22:15 | 11.99834 | -61.81850 | 3100 ft | 104 kts | 19° |
| 2026-04-23 22:15 | 12.00550 | -61.81667 | 3234 ft | 111 kts | 17° |
| 2026-04-23 22:15 | 12.01306 | -61.81489 | 3430 ft | 109 kts | 15° |
| 2026-04-23 22:16 | 12.02058 | -61.81337 | 3599 ft | 112 kts | 11° |
| 2026-04-23 22:16 | 12.02821 | -61.81159 | 3792 ft | 112 kts | 21° |
| 2026-04-23 22:16 | 12.03518 | -61.80828 | 3964 ft | 110 kts | 35° |
| 2026-04-23 22:16 | 12.04125 | -61.80361 | 4121 ft | 109 kts | 41° |
| 2026-04-23 22:17 | 12.04720 | -61.79880 | 4297 ft | 110 kts | 32° |
| 2026-04-23 22:17 | 12.05439 | -61.79619 | 4475 ft | 112 kts | 18° |
| 2026-04-23 22:17 | 12.06196 | -61.79375 | 4590 ft | 115 kts | 21° |
| 2026-04-23 22:17 | 12.06919 | -61.79063 | 4762 ft | 112 kts | 26° |
| 2026-04-23 22:18 | 12.07649 | -61.78752 | 4891 ft | 116 kts | 24° |
| 2026-04-23 22:18 | 12.08393 | -61.78437 | 5044 ft | 115 kts | 24° |
| 2026-04-23 22:18 | 12.09145 | -61.78139 | 5144 ft | 118 kts | 22° |
| 2026-04-23 22:18 | 12.09913 | -61.77820 | 5223 ft | 119 kts | 26° |
| 2026-04-23 22:19 | 12.10676 | -61.77501 | 5345 ft | 118 kts | 19° |
| 2026-04-23 22:19 | 12.11458 | -61.77257 | 5424 ft | 120 kts | 19° |
| 2026-04-23 22:19 | 12.12205 | -61.77005 | 5517 ft | 120 kts | 19° |
| 2026-04-23 22:19 | 12.12920 | -61.76766 | 5597 ft | 121 kts | 14° |
| 2026-04-23 22:20 | 12.13752 | -61.76612 | 5678 ft | 122 kts | 9° |
| 2026-04-23 22:20 | 12.14583 | -61.76462 | 5776 ft | 121 kts | 13° |
| 2026-04-23 22:20 | 12.15420 | -61.76288 | 5860 ft | 123 kts | 9° |
| 2026-04-23 22:20 | 12.16260 | -61.76148 | 5968 ft | 122 kts | 10° |
| 2026-04-23 22:21 | 12.17104 | -61.76029 | 6056 ft | 123 kts | 6° |
| 2026-04-23 22:21 | 12.17955 | -61.75904 | 6141 ft | 124 kts | 11° |
| 2026-04-23 22:21 | 12.18794 | -61.75732 | 6277 ft | 120 kts | 9° |
| 2026-04-23 22:21 | 12.19602 | -61.75606 | 6392 ft | 120 kts | 7° |
| 2026-04-23 22:22 | 12.20443 | -61.75493 | 6462 ft | 122 kts | 7° |
| 2026-04-23 22:22 | 12.21281 | -61.75374 | 6550 ft | 122 kts | 7° |
| 2026-04-23 22:22 | 12.22136 | -61.75235 | 6608 ft | 125 kts | 9° |
| 2026-04-23 22:22 | 12.22985 | -61.75046 | 6698 ft | 125 kts | 13° |
| 2026-04-23 22:23 | 12.23819 | -61.74785 | 6784 ft | 125 kts | 19° |
| 2026-04-23 22:23 | 12.24664 | -61.74552 | 6846 ft | 127 kts | 11° |
| 2026-04-23 22:23 | 12.25533 | -61.74392 | 6911 ft | 128 kts | 8° |
| 2026-04-23 22:23 | 12.26418 | -61.74276 | 6985 ft | 127 kts | 3° |
| 2026-04-23 22:24 | 12.27296 | -61.74209 | 7067 ft | 127 kts | 2° |
| 2026-04-23 22:24 | 12.28166 | -61.74135 | 7124 ft | 128 kts | 4° |
| 2026-04-23 22:24 | 12.29046 | -61.74013 | 7204 ft | 127 kts | 6° |
| 2026-04-23 22:24 | 12.29924 | -61.73916 | 7264 ft | 128 kts | 2° |
| 2026-04-23 22:25 | 12.30812 | -61.73860 | 7350 ft | 127 kts | 359° |
| 2026-04-23 22:25 | 12.31698 | -61.73833 | 7415 ft | 127 kts | 357° |
| 2026-04-23 22:25 | 12.32586 | -61.73784 | 7464 ft | 132 kts | 2° |
| 2026-04-23 22:25 | 12.33519 | -61.73699 | 7575 ft | 135 kts | 2° |
| 2026-04-23 22:26 | 12.34476 | -61.73616 | 7639 ft | 142 kts | 2° |
| 2026-04-23 22:26 | 12.35368 | -61.73550 | 7763 ft | 140 kts | 358° |
| 2026-04-23 22:26 | 12.36361 | -61.73513 | 7832 ft | 145 kts | 1° |
| 2026-04-23 22:26 | 12.37369 | -61.73336 | 7917 ft | 148 kts | 9° |
| 2026-04-23 22:27 | 12.38382 | -61.73130 | 8030 ft | 148 kts | 8° |
| 2026-04-23 22:27 | 12.39384 | -61.72924 | 8116 ft | 150 kts | 6° |
| 2026-04-23 22:27 | 12.40419 | -61.72738 | 8220 ft | 151 kts | 7° |
| 2026-04-23 22:27 | 12.41446 | -61.72550 | 8348 ft | 149 kts | 2° |
| 2026-04-23 22:28 | 12.42478 | -61.72480 | 8461 ft | 148 kts | 359° |
| 2026-04-23 22:28 | 12.43509 | -61.72483 | 8566 ft | 147 kts | 349° |
| 2026-04-23 22:28 | 12.44514 | -61.72613 | 8709 ft | 145 kts | 348° |
| 2026-04-23 22:28 | 12.45538 | -61.72709 | 8771 ft | 150 kts | 353° |
| 2026-04-23 22:29 | 12.46574 | -61.72782 | 8891 ft | 149 kts | 351° |
| 2026-04-23 22:29 | 12.47599 | -61.72903 | 9003 ft | 148 kts | 348° |
| 2026-04-23 22:29 | 12.48625 | -61.73050 | 9092 ft | 150 kts | 346° |
| 2026-04-23 22:29 | 12.49641 | -61.73263 | 9204 ft | 148 kts | 341° |
| 2026-04-23 22:30 | 12.50633 | -61.73523 | 9307 ft | 148 kts | 340° |
| 2026-04-23 22:30 | 12.51632 | -61.73799 | 9392 ft | 149 kts | 340° |
| 2026-04-23 22:30 | 12.52627 | -61.74059 | 9501 ft | 149 kts | 342° |
| 2026-04-23 22:30 | 12.53656 | -61.74241 | 9592 ft | 151 kts | 349° |
| 2026-04-23 22:31 | 12.54712 | -61.74306 | 9684 ft | 152 kts | 353° |
| 2026-04-23 22:31 | 12.55764 | -61.74360 | 9803 ft | 151 kts | 353° |
| 2026-04-23 22:31 | 12.56815 | -61.74408 | 9890 ft | 152 kts | 353° |
| 2026-04-23 22:31 | 12.57874 | -61.74443 | 9964 ft | 153 kts | 354° |
| 2026-04-23 22:32 | 12.58938 | -61.74453 | 10060 ft | 153 kts | 356° |
| 2026-04-23 22:32 | 12.60006 | -61.74445 | 10135 ft | 154 kts | 355° |
| 2026-04-23 22:32 | 12.61080 | -61.74442 | 10222 ft | 154 kts | 355° |
| 2026-04-23 22:32 | 12.62156 | -61.74426 | 10312 ft | 154 kts | 357° |
| 2026-04-23 22:33 | 12.63229 | -61.74381 | 10402 ft | 155 kts | 358° |
| 2026-04-23 22:33 | 12.64313 | -61.74360 | 10465 ft | 156 kts | 354° |
| 2026-04-23 22:33 | 12.65407 | -61.74421 | 10497 ft | 159 kts | 352° |
| 2026-04-23 22:33 | 12.66525 | -61.74477 | 10531 ft | 161 kts | 354° |
| 2026-04-23 22:34 | 12.67642 | -61.74471 | 10614 ft | 160 kts | 358° |
| 2026-04-23 22:34 | 12.68760 | -61.74378 | 10665 ft | 162 kts | 3° |
| 2026-04-23 22:34 | 12.69885 | -61.74229 | 10680 ft | 165 kts | 1° |
| 2026-04-23 22:34 | 12.71045 | -61.74165 | 10586 ft | 173 kts | 358° |
| 2026-04-23 22:35 | 12.72278 | -61.74147 | 10475 ft | 179 kts | 356° |
| 2026-04-23 22:35 | 12.73499 | -61.74245 | 10438 ft | 177 kts | 348° |
| 2026-04-23 22:35 | 12.74711 | -61.74423 | 10453 ft | 174 kts | 347° |
| 2026-04-23 22:35 | 12.75896 | -61.74617 | 10472 ft | 171 kts | 347° |
| 2026-04-23 22:36 | 12.77086 | -61.74815 | 10420 ft | 174 kts | 346° |
| 2026-04-23 22:36 | 12.78269 | -61.75033 | 10436 ft | 172 kts | 346° |
| 2026-04-23 22:36 | 12.79453 | -61.75236 | 10407 ft | 173 kts | 347° |
| 2026-04-23 22:36 | 12.80654 | -61.75388 | 10391 ft | 174 kts | 351° |
| 2026-04-23 22:37 | 12.81862 | -61.75457 | 10392 ft | 174 kts | 355° |
| 2026-04-23 22:37 | 12.83075 | -61.75422 | 10382 ft | 175 kts | 0° |
| 2026-04-23 22:37 | 12.83755 | -61.75354 | 10386 ft | 175 kts | 1° |
| 2026-04-23 22:37 | 12.85288 | -61.75279 | 10391 ft | 174 kts | 357° |
| 2026-04-23 22:38 | 12.86444 | -61.75275 | 10379 ft | 174 kts | 354° |
| 2026-04-23 22:38 | 12.87647 | -61.75337 | 10375 ft | 173 kts | 352° |
| 2026-04-23 22:38 | 12.88850 | -61.75431 | 10355 ft | 174 kts | 352° |
| 2026-04-23 22:38 | 12.90063 | -61.75504 | 10327 ft | 175 kts | 354° |
| 2026-04-23 22:39 | 12.91275 | -61.75538 | 10334 ft | 174 kts | 354° |
| 2026-04-23 22:39 | 12.92485 | -61.75579 | 10333 ft | 174 kts | 354° |
| 2026-04-23 22:39 | 12.93649 | -61.75601 | 10332 ft | 174 kts | 355° |
| 2026-04-23 22:39 | 12.94845 | -61.75617 | 10320 ft | 174 kts | 356° |
| 2026-04-23 22:40 | 12.96056 | -61.75635 | 10305 ft | 174 kts | 354° |
| 2026-04-23 22:40 | 12.97183 | -61.75668 | 10302 ft | 173 kts | 354° |
| 2026-04-23 22:40 | 12.99580 | -61.75830 | 10294 ft | 172 kts | 351° |
| 2026-04-23 22:41 | 13.00775 | -61.75949 | 10277 ft | 172 kts | 348° |
| 2026-04-23 22:41 | 13.01955 | -61.76123 | 10289 ft | 171 kts | 347° |
| 2026-04-23 22:41 | 13.02730 | -61.76245 | 10299 ft | 170 kts | 347° |
| 2026-04-23 22:41 | 13.03907 | -61.76430 | 10282 ft | 171 kts | 347° |
| 2026-04-23 22:42 | 13.05082 | -61.76611 | 10276 ft | 171 kts | 347° |
| 2026-04-23 22:42 | 13.06659 | -61.76703 | 10299 ft | 173 kts | 7° |
| 2026-04-23 22:42 | 13.07763 | -61.76226 | 10296 ft | 177 kts | 33° |
| 2026-04-23 22:42 | 13.08371 | -61.75615 | 10219 ft | 184 kts | 52° |
| 2026-04-23 22:43 | 13.08995 | -61.74483 | 10241 ft | 181 kts | 63° |
| 2026-04-23 22:43 | 13.09558 | -61.73336 | 10255 ft | 180 kts | 63° |
| 2026-04-23 22:43 | 13.10112 | -61.72198 | 10137 ft | 183 kts | 64° |
| 2026-04-23 22:43 | 13.10669 | -61.71015 | 10000 ft | 184 kts | 64° |
| 2026-04-23 22:44 | 13.11222 | -61.69844 | 9918 ft | 182 kts | 63° |
| 2026-04-23 22:44 | 13.11796 | -61.68677 | 9801 ft | 184 kts | 62° |
| 2026-04-23 22:44 | 13.12383 | -61.67501 | 9791 ft | 186 kts | 62° |
| 2026-04-23 22:44 | 13.12987 | -61.66325 | 9808 ft | 186 kts | 61° |
| 2026-04-23 22:45 | 13.13652 | -61.65185 | 9784 ft | 188 kts | 53° |
| 2026-04-23 22:45 | 13.14463 | -61.64145 | 9806 ft | 186 kts | 46° |
| 2026-04-23 22:45 | 13.15337 | -61.63164 | 9811 ft | 186 kts | 46° |
| 2026-04-23 22:45 | 13.16214 | -61.62183 | 9807 ft | 187 kts | 45° |
| 2026-04-23 22:46 | 13.17111 | -61.61222 | 9815 ft | 186 kts | 44° |
| 2026-04-23 22:46 | 13.18022 | -61.60277 | 9833 ft | 185 kts | 43° |
| 2026-04-23 22:46 | 13.18960 | -61.59370 | 9843 ft | 186 kts | 40° |
| 2026-04-23 22:46 | 13.19944 | -61.58514 | 9862 ft | 184 kts | 36° |
| 2026-04-23 22:47 | 13.20902 | -61.57646 | 9851 ft | 186 kts | 46° |
| 2026-04-23 22:47 | 13.21781 | -61.56654 | 9812 ft | 188 kts | 45° |
| 2026-04-23 22:47 | 13.22642 | -61.55648 | 9811 ft | 188 kts | 47° |
| 2026-04-23 22:47 | 13.23505 | -61.54641 | 9806 ft | 188 kts | 46° |
| 2026-04-23 22:48 | 13.24387 | -61.53651 | 9777 ft | 189 kts | 46° |
| 2026-04-23 22:48 | 13.25273 | -61.52650 | 9745 ft | 189 kts | 47° |
| 2026-04-23 22:48 | 13.26118 | -61.51644 | 9740 ft | 188 kts | 48° |
| 2026-04-23 22:48 | 13.26978 | -61.50628 | 9717 ft | 189 kts | 46° |
| 2026-04-23 22:49 | 13.27874 | -61.49641 | 9685 ft | 189 kts | 46° |
| 2026-04-23 22:49 | 13.28740 | -61.48621 | 9641 ft | 190 kts | 48° |
| 2026-04-23 22:49 | 13.29603 | -61.47610 | 9671 ft | 187 kts | 46° |
| 2026-04-23 22:49 | 13.30484 | -61.46616 | 9593 ft | 190 kts | 48° |
| 2026-04-23 22:50 | 13.31313 | -61.45552 | 9558 ft | 190 kts | 50° |
| 2026-04-23 22:50 | 13.32140 | -61.44493 | 9530 ft | 190 kts | 49° |
| 2026-04-23 22:50 | 13.32995 | -61.43451 | 9464 ft | 191 kts | 47° |
| 2026-04-23 22:50 | 13.33881 | -61.42441 | 9463 ft | 189 kts | 46° |
| 2026-04-23 22:51 | 13.34799 | -61.41466 | 9384 ft | 191 kts | 43° |
| 2026-04-23 22:51 | 13.35756 | -61.40517 | 9354 ft | 190 kts | 41° |
| 2026-04-23 22:51 | 13.36677 | -61.39629 | 9345 ft | 189 kts | 43° |
| 2026-04-23 22:51 | 13.37581 | -61.38662 | 9255 ft | 192 kts | 47° |
| 2026-04-23 22:52 | 13.38437 | -61.37615 | 9234 ft | 190 kts | 49° |
| 2026-04-23 22:52 | 13.39282 | -61.36562 | 9139 ft | 193 kts | 50° |
| 2026-04-23 22:52 | 13.40088 | -61.35463 | 9092 ft | 192 kts | 54° |
| 2026-04-23 22:52 | 13.40861 | -61.34358 | 9055 ft | 190 kts | 52° |
| 2026-04-23 22:53 | 13.41672 | -61.33270 | 8952 ft | 192 kts | 52° |
| 2026-04-23 22:53 | 13.42456 | -61.32156 | 8899 ft | 192 kts | 55° |
| 2026-04-23 22:53 | 13.43205 | -61.31022 | 8849 ft | 191 kts | 53° |
| 2026-04-23 22:53 | 13.44028 | -61.29948 | 8786 ft | 191 kts | 49° |
| 2026-04-23 22:54 | 13.44895 | -61.28922 | 8752 ft | 190 kts | 47° |
| 2026-04-23 22:54 | 13.45792 | -61.27921 | 8686 ft | 191 kts | 45° |
| 2026-04-23 22:54 | 13.46674 | -61.26976 | 8640 ft | 190 kts | 45° |
| 2026-04-23 22:54 | 13.47597 | -61.25993 | 8593 ft | 190 kts | 45° |
| 2026-04-23 22:55 | 13.48493 | -61.24995 | 8535 ft | 190 kts | 46° |
| 2026-04-23 22:55 | 13.49412 | -61.24016 | 8450 ft | 191 kts | 44° |
| 2026-04-23 22:55 | 13.50409 | -61.23101 | 8348 ft | 192 kts | 37° |
| 2026-04-23 22:55 | 13.51503 | -61.22347 | 8341 ft | 188 kts | 29° |
| 2026-04-23 22:56 | 13.52631 | -61.21674 | 8276 ft | 188 kts | 27° |
| 2026-04-23 22:56 | 13.53788 | -61.21025 | 8182 ft | 190 kts | 26° |
| 2026-04-23 22:56 | 13.54947 | -61.20378 | 8146 ft | 188 kts | 27° |
| 2026-04-23 22:56 | 13.56095 | -61.19741 | 8090 ft | 188 kts | 26° |
| 2026-04-23 22:57 | 13.57259 | -61.19106 | 7970 ft | 190 kts | 26° |
| 2026-04-23 22:57 | 13.58421 | -61.18455 | 7863 ft | 189 kts | 25° |
| 2026-04-23 22:57 | 13.59564 | -61.17834 | 7550 ft | 189 kts | 27° |
| 2026-04-23 22:57 | 13.60719 | -61.17176 | 7243 ft | 189 kts | 28° |
| 2026-04-23 22:58 | 13.61838 | -61.16494 | 6982 ft | 187 kts | 30° |
| 2026-04-23 22:58 | 13.62913 | -61.15791 | 6691 ft | 187 kts | 33° |
| 2026-04-23 22:58 | 13.63957 | -61.15019 | 6433 ft | 180 kts | 36° |
| 2026-04-23 22:58 | 13.64981 | -61.14283 | 6031 ft | 179 kts | 32° |
| 2026-04-23 22:59 | 13.66010 | -61.13610 | 5857 ft | 174 kts | 31° |
| 2026-04-23 22:59 | 13.67037 | -61.12961 | 5633 ft | 173 kts | 31° |
| 2026-04-23 22:59 | 13.68048 | -61.12309 | 5405 ft | 172 kts | 31° |
| 2026-04-23 22:59 | 13.69098 | -61.11670 | 5032 ft | 177 kts | 31° |
| 2026-04-23 23:00 | 13.70105 | -61.11004 | 4689 ft | 162 kts | 34° |
| 2026-04-23 23:00 | 13.70981 | -61.10333 | 4265 ft | 152 kts | 40° |
| 2026-04-23 23:00 | 13.71748 | -61.09646 | 3907 ft | 142 kts | 43° |
| 2026-04-23 23:00 | 13.72426 | -61.08980 | 3667 ft | 132 kts | 46° |
| 2026-04-23 23:01 | 13.72971 | -61.08260 | 3386 ft | 126 kts | 72° |
| 2026-04-23 23:01 | 13.73063 | -61.07367 | 3128 ft | 122 kts | 89° |
| 2026-04-23 23:01 | 13.73071 | -61.06479 | 2790 ft | 127 kts | 88° |
| 2026-04-23 23:01 | 13.73087 | -61.05555 | 2390 ft | 130 kts | 89° |
| 2026-04-23 23:02 | 13.73112 | -61.04649 | 2159 ft | 122 kts | 85° |
| 2026-04-23 23:02 | 13.73204 | -61.03824 | 2011 ft | 114 kts | 84° |
| 2026-04-23 23:02 | 13.73275 | -61.03015 | 1781 ft | 115 kts | 87° |
| 2026-04-23 23:02 | 13.73324 | -61.02176 | 1523 ft | 118 kts | 89° |
| 2026-04-23 23:03 | 13.73335 | -61.01341 | 1322 ft | 117 kts | 91° |
| 2026-04-23 23:03 | 13.73306 | -61.00503 | 1119 ft | 117 kts | 90° |
| 2026-04-23 23:03 | 13.73324 | -60.99673 | 921 ft | 116 kts | 88° |
| 2026-04-23 23:03 | 13.73328 | -60.98838 | 700 ft | 118 kts | 90° |
| 2026-04-23 23:04 | 13.73337 | -60.97988 | 408 ft | 121 kts | 90° |
| 2026-04-23 23:04 | 13.73337 | -60.97221 | 222 ft | 95 kts | 91° |
| 2026-04-23 23:04 | 13.73338 | -60.96618 | 83 ft | 76 kts | 88° |
| 2026-04-23 23:04 | 13.73340 | -60.96107 | 16 ft | 67 kts | 91° |
| 2026-04-23 23:05 | 13.73338 | -60.95772 | 17 ft | 24 kts | 90° |
| 2026-04-23 23:05 | 13.73339 | -60.95643 | 16 ft | 19 kts | 90° |
| 2026-04-23 23:05 | 13.73345 | -60.95488 | 16 ft | 25 kts | 86° |
| 2026-04-23 23:05 | 13.73345 | -60.95415 | 16 ft | 0 kts | 90° |
| 2026-04-23 23:06 | 13.73346 | -60.95410 | 16 ft | 3 kts | 85° |
| 2026-04-23 23:06 | 13.73343 | -60.95354 | 16 ft | 12 kts | 93° |
| 2026-04-23 23:06 | 13.73339 | -60.95236 | 15 ft | 20 kts | 90° |
| 2026-04-23 23:06 | 13.73446 | -60.95154 | 15 ft | 23 kts | 359° |
| 2026-04-23 23:07 | 13.73518 | -60.95100 | 15 ft | 10 kts | 89° |
| 2026-04-23 23:07 | 13.73518 | -60.95001 | 15 ft | 18 kts | 89° |
| 2026-04-23 23:07 | 13.73540 | -60.94859 | 15 ft | 24 kts | 36° |
| 2026-04-23 23:07 | 13.73630 | -60.94831 | 15 ft | 4 kts | 85° |
| 2026-04-23 23:08 | 13.73629 | -60.94792 | 15 ft | 9 kts | 90° |
| 2026-04-23 23:08 | 13.73629 | -60.94785 | 15 ft | 0 kts | 87° |